Time;durP1;ratioP1;P1;durP2;ratioP2;P2;SDS_P1;SDS_P2;PMS_P1;PMS_P2;Temp;Humidity;BMP_temperature;BMP_pressure;BME280_temperature;BME280_humidity;BME280_pressure;Samples;Min_cycle;Max_cycle;Signal;HPM_P1;HPM_P2
2022/10/29 00:01:08;;;;;;;4.17;3.77;;;;;;;;;;5049841;28;20255;-81
2022/10/29 00:03:36;;;;;;;3.27;3.00;;;;;;;;;;5049939;28;20225;-81
2022/10/29 00:06:04;;;;;;;3.17;2.87;;;;;;;;;;5049953;28;20647;-80
2022/10/29 00:08:34;;;;;;;2.83;2.63;;;;;;;;;;5050162;28;20198;-81
2022/10/29 00:11:09;;;;;;;3.20;2.90;;;;;;;;;;5049885;28;20251;-81
2022/10/29 00:13:36;;;;;;;3.50;3.20;;;;;;;;;;5049671;28;22300;-81
2022/10/29 00:16:08;;;;;;;3.10;2.90;;;;;;;;;;5049538;28;20226;-81
2022/10/29 00:18:35;;;;;;;3.90;3.50;;;;;;;;;;5049952;28;20597;-81
2022/10/29 00:21:02;;;;;;;4.37;3.57;;;;;;;;;;5049835;28;20194;-81
2022/10/29 00:23:29;;;;;;;2.70;2.50;;;;;;;;;;5049848;28;20202;-81
2022/10/29 00:25:57;;;;;;;2.67;2.47;;;;;;;;;;5049265;28;20646;-81
2022/10/29 00:28:25;;;;;;;9.90;4.77;;;;;;;;;;5049846;28;20206;-81
2022/10/29 00:30:51;;;;;;;2.73;2.50;;;;;;;;;;5049850;28;20636;-81
2022/10/29 00:33:19;;;;;;;3.67;3.17;;;;;;;;;;5049574;28;20198;-81
2022/10/29 00:35:55;;;;;;;3.20;2.90;;;;;;;;;;5049950;28;20233;-81
2022/10/29 00:38:23;;;;;;;2.90;2.70;;;;;;;;;;5053483;28;20606;-81
2022/10/29 00:40:50;;;;;;;3.13;2.50;;;;;;;;;;5053089;28;20642;-81
2022/10/29 00:43:18;;;;;;;3.60;3.23;;;;;;;;;;5053240;28;20202;-82
2022/10/29 00:45:48;;;;;;;3.03;2.80;;;;;;;;;;5053002;28;20202;-81
2022/10/29 00:48:15;;;;;;;4.83;2.83;;;;;;;;;;5053599;28;20206;-80
2022/10/29 00:50:43;;;;;;;3.53;3.10;;;;;;;;;;5053123;28;20632;-81
2022/10/29 00:53:09;;;;;;;3.30;3.00;;;;;;;;;;5053307;28;20206;-81
2022/10/29 00:55:36;;;;;;;3.40;3.10;;;;;;;;;;5052538;28;20705;-81
2022/10/29 00:58:04;;;;;;;7.33;3.00;;;;;;;;;;5053339;28;20206;-81
2022/10/29 01:00:30;;;;;;;6.53;3.03;;;;;;;;;;5052796;28;20267;-81
2022/10/29 01:02:58;;;;;;;5.10;3.90;;;;;;;;;;5052954;28;20225;-81
2022/10/29 01:05:26;;;;;;;3.30;3.00;;;;;;;;;;5052860;28;20206;-81
2022/10/29 01:07:53;;;;;;;4.97;3.57;;;;;;;;;;5052768;28;20708;-81
2022/10/29 01:10:26;;;;;;;3.43;3.20;;;;;;;;;;5052588;28;20688;-81
2022/10/29 01:13:13;;;;;;;3.70;3.03;;;;;;;;;;5052877;28;20697;-82
2022/10/29 01:15:44;;;;;;;4.43;3.07;;;;;;;;;;5052295;28;20660;-81
2022/10/29 01:18:20;;;;;;;3.77;3.47;;;;;;;;;;5052508;28;20206;-81
2022/10/29 01:21:16;;;;;;;3.23;2.93;;;;;;;;;;5052762;28;20271;-82
2022/10/29 01:24:07;;;;;;;3.23;2.93;;;;;;;;;;5052601;28;20693;-82
2022/10/29 01:26:52;;;;;;;3.00;2.80;;;;;;;;;;5040014;28;20202;-81
2022/10/29 01:29:28;;;;;;;4.77;3.17;;;;;;;;;;5052064;28;20205;-82
2022/10/29 01:32:01;;;;;;;3.37;3.07;;;;;;;;;;5052389;28;20201;-82
2022/10/29 01:34:32;;;;;;;3.97;3.57;;;;;;;;;;5052286;28;20202;-81
2022/10/29 01:37:01;;;;;;;4.27;3.20;;;;;;;;;;5051680;28;20244;-81
2022/10/29 01:39:33;;;;;;;3.67;3.37;;;;;;;;;;5052017;28;20205;-81
2022/10/29 01:42:02;;;;;;;4.63;3.30;;;;;;;;;;5052329;28;20205;-82
2022/10/29 01:44:34;;;;;;;3.80;3.47;;;;;;;;;;5052101;28;20209;-82
2022/10/29 01:47:04;;;;;;;4.50;3.23;;;;;;;;;;5051967;28;20241;-82
2022/10/29 01:49:35;;;;;;;6.73;2.53;;;;;;;;;;5050752;28;20217;-81
2022/10/29 01:52:03;;;;;;;3.27;2.97;;;;;;;;;;5052442;28;20281;-81
2022/10/29 01:54:30;;;;;;;3.47;3.13;;;;;;;;;;5052110;28;20212;-82
2022/10/29 01:56:58;;;;;;;4.57;3.27;;;;;;;;;;5051882;28;20700;-82
2022/10/29 01:59:27;;;;;;;3.50;3.20;;;;;;;;;;5051735;28;20568;-82
2022/10/29 02:02:04;;;;;;;3.50;3.20;;;;;;;;;;5051479;28;20260;-80
2022/10/29 02:04:46;;;;;;;3.50;3.20;;;;;;;;;;5052258;28;20310;-82
2022/10/29 02:07:20;;;;;;;3.40;3.10;;;;;;;;;;5051741;28;20205;-82
2022/10/29 02:09:54;;;;;;;3.30;3.00;;;;;;;;;;5051663;28;20201;-82
2022/10/29 02:12:24;;;;;;;4.77;3.17;;;;;;;;;;5051537;28;20639;-82
2022/10/29 02:14:54;;;;;;;4.30;3.33;;;;;;;;;;5051557;28;20604;-82
2022/10/29 02:17:23;;;;;;;6.23;3.40;;;;;;;;;;5051308;28;20229;-83
2022/10/29 02:19:50;;;;;;;3.57;3.27;;;;;;;;;;5051712;28;20198;-83
2022/10/29 02:22:17;;;;;;;3.93;3.53;;;;;;;;;;5051401;28;20631;-82
2022/10/29 02:24:43;;;;;;;3.07;2.70;;;;;;;;;;5051477;28;20288;-82
2022/10/29 02:27:10;;;;;;;3.53;3.13;;;;;;;;;;5051292;28;20213;-82
2022/10/29 02:29:37;;;;;;;4.03;3.53;;;;;;;;;;5050962;28;20687;-82
2022/10/29 02:32:04;;;;;;;9.03;6.13;;;;;;;;;;5051432;28;20214;-82
2022/10/29 02:34:32;;;;;;;5.43;4.93;;;;;;;;;;5051133;28;20236;-82
2022/10/29 02:36:59;;;;;;;5.80;5.30;;;;;;;;;;5051061;28;20295;-82
2022/10/29 02:39:25;;;;;;;6.80;6.20;;;;;;;;;;5050650;28;20259;-82
2022/10/29 02:41:53;;;;;;;8.33;7.63;;;;;;;;;;5051455;28;20194;-82
2022/10/29 02:44:20;;;;;;;6.40;5.70;;;;;;;;;;5051006;28;20288;-82
2022/10/29 02:46:46;;;;;;;4.83;4.43;;;;;;;;;;5051330;28;20233;-82
2022/10/29 02:49:13;;;;;;;5.37;3.77;;;;;;;;;;5050669;28;20210;-83
2022/10/29 02:51:41;;;;;;;3.27;2.97;;;;;;;;;;5050705;28;20213;-82
2022/10/29 02:54:08;;;;;;;3.67;3.37;;;;;;;;;;5050663;28;20205;-83
2022/10/29 02:56:35;;;;;;;6.20;3.77;;;;;;;;;;5050786;28;20230;-83
2022/10/29 02:59:02;;;;;;;3.63;3.33;;;;;;;;;;5050582;28;20217;-83
2022/10/29 03:01:29;;;;;;;3.30;3.00;;;;;;;;;;5050605;28;20202;-83
2022/10/29 03:03:55;;;;;;;4.63;2.83;;;;;;;;;;5050670;28;20287;-83
2022/10/29 03:06:22;;;;;;;4.87;3.40;;;;;;;;;;5050778;28;20213;-83
2022/10/29 03:08:50;;;;;;;3.83;2.70;;;;;;;;;;5050713;28;20719;-83
2022/10/29 03:11:17;;;;;;;4.37;3.97;;;;;;;;;;5050392;28;20202;-82
2022/10/29 03:13:44;;;;;;;3.00;2.73;;;;;;;;;;5050853;28;20206;-82
2022/10/29 03:16:10;;;;;;;2.90;2.70;;;;;;;;;;5050327;28;20225;-82
2022/10/29 03:18:37;;;;;;;3.50;2.50;;;;;;;;;;5050856;28;20202;-81
2022/10/29 03:21:04;;;;;;;4.57;2.70;;;;;;;;;;5049877;28;20225;-81
2022/10/29 03:23:31;;;;;;;5.87;3.40;;;;;;;;;;5038090;28;21379;-82
2022/10/29 03:25:59;;;;;;;3.17;2.90;;;;;;;;;;5048690;28;20685;-82
2022/10/29 03:28:29;;;;;;;3.13;2.87;;;;;;;;;;5046123;28;20205;-82
2022/10/29 03:30:55;;;;;;;3.50;3.20;;;;;;;;;;5033578;28;20666;-82
2022/10/29 03:33:22;;;;;;;3.57;2.63;;;;;;;;;;5029918;28;20198;-82
2022/10/29 03:35:49;;;;;;;4.17;3.33;;;;;;;;;;5029299;28;20605;-83
2022/10/29 03:38:16;;;;;;;3.13;2.73;;;;;;;;;;5029901;28;20195;-82
2022/10/29 03:40:44;;;;;;;3.60;3.30;;;;;;;;;;5030069;28;20249;-82
2022/10/29 03:43:12;;;;;;;3.30;3.00;;;;;;;;;;5039884;28;20201;-83
2022/10/29 03:45:38;;;;;;;3.07;2.60;;;;;;;;;;5050345;28;20194;-82
2022/10/29 03:48:06;;;;;;;3.67;2.90;;;;;;;;;;5049866;28;20577;-82
2022/10/29 03:50:32;;;;;;;3.47;3.17;;;;;;;;;;5049801;28;20197;-82
2022/10/29 03:52:59;;;;;;;3.63;3.33;;;;;;;;;;5050230;28;20209;-82
2022/10/29 03:55:27;;;;;;;4.00;3.43;;;;;;;;;;5049780;28;20202;-82
2022/10/29 03:57:54;;;;;;;5.53;3.77;;;;;;;;;;5049998;28;20312;-84
2022/10/29 04:00:22;;;;;;;3.37;3.07;;;;;;;;;;5050058;28;20197;-83
2022/10/29 04:02:49;;;;;;;4.23;3.87;;;;;;;;;;5049910;28;20218;-82
2022/10/29 04:05:16;;;;;;;4.33;3.50;;;;;;;;;;5050041;28;20213;-83
2022/10/29 04:07:43;;;;;;;5.87;3.30;;;;;;;;;;5050051;28;20198;-82
2022/10/29 04:10:10;;;;;;;3.43;3.13;;;;;;;;;;5050404;28;20206;-83
2022/10/29 04:12:36;;;;;;;3.60;3.30;;;;;;;;;;5053440;28;20205;-82
2022/10/29 04:15:03;;;;;;;3.20;3.00;;;;;;;;;;5053876;28;20647;-85
2022/10/29 04:17:31;;;;;;;2.90;2.70;;;;;;;;;;5053508;28;20233;-83
2022/10/29 04:19:58;;;;;;;4.17;3.33;;;;;;;;;;5053513;28;20217;-83
2022/10/29 04:22:25;;;;;;;5.43;2.90;;;;;;;;;;5053699;28;20202;-83
2022/10/29 04:24:52;;;;;;;3.63;3.33;;;;;;;;;;5053872;28;20201;-83
2022/10/29 04:27:19;;;;;;;3.07;2.77;;;;;;;;;;5053592;28;20198;-83
2022/10/29 04:29:46;;;;;;;5.33;4.40;;;;;;;;;;5053237;28;20641;-83
2022/10/29 04:32:12;;;;;;;5.47;4.83;;;;;;;;;;5053643;28;20206;-83
2022/10/29 04:34:40;;;;;;;10.47;6.73;;;;;;;;;;5053656;28;20202;-83
2022/10/29 04:37:07;;;;;;;61.20;34.60;;;;;;;;;;5053600;28;20221;-83
2022/10/29 04:39:34;;;;;;;26.67;17.57;;;;;;;;;;5053197;28;20213;-83
2022/10/29 04:42:01;;;;;;;19.67;13.87;;;;;;;;;;5053405;28;20198;-83
2022/10/29 04:44:27;;;;;;;7.53;6.10;;;;;;;;;;5052971;28;20665;-82
2022/10/29 04:46:57;;;;;;;7.73;4.50;;;;;;;;;;5053089;28;20217;-83
2022/10/29 04:49:23;;;;;;;4.40;3.20;;;;;;;;;;5053109;28;20224;-82
2022/10/29 04:51:51;;;;;;;5.83;2.93;;;;;;;;;;5053458;28;20643;-83
2022/10/29 04:54:18;;;;;;;3.90;3.27;;;;;;;;;;5053262;28;20202;-83
2022/10/29 04:56:45;;;;;;;3.63;3.33;;;;;;;;;;5053376;28;20226;-81
2022/10/29 04:59:12;;;;;;;8.70;3.67;;;;;;;;;;5038963;28;20626;-82
2022/10/29 05:01:45;;;;;;;3.70;3.10;;;;;;;;;;5053303;28;20573;-83
2022/10/29 05:04:11;;;;;;;8.00;6.50;;;;;;;;;;5052861;28;20234;-83
2022/10/29 05:06:41;;;;;;;16.17;6.17;;;;;;;;;;5053226;28;20626;-83
2022/10/29 05:09:09;;;;;;;6.37;4.10;;;;;;;;;;5052742;28;20202;-82
2022/10/29 05:11:36;;;;;;;4.77;4.20;;;;;;;;;;5052415;28;20701;-83
2022/10/29 05:14:02;;;;;;;7.83;4.33;;;;;;;;;;5048933;28;20575;-82
2022/10/29 05:16:29;;;;;;;6.30;4.07;;;;;;;;;;5047199;28;20209;-84
2022/10/29 05:18:56;;;;;;;4.20;3.70;;;;;;;;;;5045155;28;20198;-84
2022/10/29 05:21:23;;;;;;;5.00;4.50;;;;;;;;;;5052499;28;20202;-84
2022/10/29 05:23:49;;;;;;;4.00;3.60;;;;;;;;;;5051406;28;20228;-83
2022/10/29 05:26:17;;;;;;;3.43;3.13;;;;;;;;;;5051891;28;20194;-83
2022/10/29 05:28:44;;;;;;;4.90;4.20;;;;;;;;;;5052992;28;20202;-82
2022/10/29 05:31:11;;;;;;;4.33;3.93;;;;;;;;;;5052475;28;20275;-83
2022/10/29 05:33:38;;;;;;;3.73;3.07;;;;;;;;;;5052502;28;20202;-85
2022/10/29 05:36:05;;;;;;;5.07;3.30;;;;;;;;;;5052331;28;20263;-85
2022/10/29 05:38:32;;;;;;;5.43;3.43;;;;;;;;;;5052053;28;20222;-83
2022/10/29 05:40:59;;;;;;;3.80;3.50;;;;;;;;;;5051692;28;20645;-84
2022/10/29 05:43:27;;;;;;;5.07;4.00;;;;;;;;;;5052078;28;20232;-85
2022/10/29 05:45:54;;;;;;;11.63;8.87;;;;;;;;;;5051518;28;20205;-85
2022/10/29 05:48:21;;;;;;;8.37;5.97;;;;;;;;;;5051968;28;20673;-84
2022/10/29 05:50:48;;;;;;;3.20;2.90;;;;;;;;;;5052320;28;20205;-84
2022/10/29 05:53:15;;;;;;;3.47;3.10;;;;;;;;;;5051512;28;20294;-84
2022/10/29 05:55:42;;;;;;;2.97;2.67;;;;;;;;;;5051785;28;20706;-85
2022/10/29 05:58:10;;;;;;;3.93;3.37;;;;;;;;;;5052038;28;20236;-85
2022/10/29 06:00:40;;;;;;;4.17;2.63;;;;;;;;;;5051658;28;20382;-84
2022/10/29 06:03:11;;;;;;;3.70;2.37;;;;;;;;;;5051992;28;20592;-84
2022/10/29 06:05:38;;;;;;;4.27;3.10;;;;;;;;;;5051357;28;20202;-83
2022/10/29 06:08:05;;;;;;;3.60;2.43;;;;;;;;;;5051507;28;20221;-84
2022/10/29 06:10:33;;;;;;;2.63;2.43;;;;;;;;;;5051536;28;20213;-83
2022/10/29 06:12:59;;;;;;;4.07;2.23;;;;;;;;;;5051732;28;20206;-84
2022/10/29 06:15:26;;;;;;;3.37;2.40;;;;;;;;;;5050889;28;20201;-84
2022/10/29 06:17:54;;;;;;;2.63;2.37;;;;;;;;;;5051121;28;20222;-83
2022/10/29 06:20:21;;;;;;;7.80;2.70;;;;;;;;;;5051033;28;20202;-83
2022/10/29 06:22:52;;;;;;;2.40;2.20;;;;;;;;;;5051326;28;20364;-83
2022/10/29 06:25:19;;;;;;;2.60;2.40;;;;;;;;;;5050305;28;20232;-83
2022/10/29 06:27:46;;;;;;;2.50;2.30;;;;;;;;;;5051357;28;20201;-83
2022/10/29 06:30:13;;;;;;;2.73;2.53;;;;;;;;;;5051124;28;20206;-84
2022/10/29 06:32:40;;;;;;;2.70;2.50;;;;;;;;;;5051309;28;20259;-85
2022/10/29 06:35:09;;;;;;;5.10;2.60;;;;;;;;;;5050452;28;20209;-85
2022/10/29 06:37:37;;;;;;;5.67;2.67;;;;;;;;;;5043782;28;20320;-85
2022/10/29 06:40:05;;;;;;;4.57;3.13;;;;;;;;;;5050942;28;20202;-85
2022/10/29 06:42:32;;;;;;;3.40;3.10;;;;;;;;;;5051264;28;20206;-86
2022/10/29 06:44:59;;;;;;;3.30;3.00;;;;;;;;;;5050699;28;20217;-85
2022/10/29 06:47:25;;;;;;;4.00;2.30;;;;;;;;;;5050694;28;20210;-85
2022/10/29 06:49:52;;;;;;;2.50;2.30;;;;;;;;;;5050865;28;20244;-85
2022/10/29 06:52:20;;;;;;;2.70;2.50;;;;;;;;;;5050869;28;20215;-84
2022/10/29 06:54:48;;;;;;;4.57;2.43;;;;;;;;;;5050796;28;20209;-85
2022/10/29 06:57:14;;;;;;;2.57;2.37;;;;;;;;;;5050403;28;20213;-83
2022/10/29 06:59:45;;;;;;;2.83;2.30;;;;;;;;;;5050900;28;20256;-83
2022/10/29 07:02:12;;;;;;;5.97;2.73;;;;;;;;;;5050355;28;20197;-82
2022/10/29 07:04:39;;;;;;;3.27;2.50;;;;;;;;;;5050968;28;20232;-82
2022/10/29 07:07:06;;;;;;;7.10;2.63;;;;;;;;;;5050635;28;20208;-82
2022/10/29 07:09:34;;;;;;;4.27;2.93;;;;;;;;;;5050271;28;20692;-82
2022/10/29 07:12:01;;;;;;;4.60;2.67;;;;;;;;;;5050704;28;20221;-82
2022/10/29 07:14:27;;;;;;;4.87;2.60;;;;;;;;;;5050203;28;20662;-82
2022/10/29 07:16:54;;;;;;;3.13;2.80;;;;;;;;;;5050072;28;20200;-83
2022/10/29 07:19:21;;;;;;;2.40;2.20;;;;;;;;;;5050026;28;20209;-82
2022/10/29 07:21:48;;;;;;;5.80;2.87;;;;;;;;;;5050535;28;20634;-82
2022/10/29 07:24:16;;;;;;;4.10;2.30;;;;;;;;;;5050158;28;20216;-82
2022/10/29 07:26:44;;;;;;;3.33;2.77;;;;;;;;;;5050560;28;20197;-82
2022/10/29 07:29:11;;;;;;;8.70;2.60;;;;;;;;;;5049845;28;20210;-82
2022/10/29 07:31:38;;;;;;;3.33;3.03;;;;;;;;;;5050379;28;20630;-82
2022/10/29 07:34:04;;;;;;;3.73;3.17;;;;;;;;;;5050513;28;20225;-82
2022/10/29 07:36:31;;;;;;;2.20;2.03;;;;;;;;;;5050132;28;20220;-82
2022/10/29 07:39:01;;;;;;;3.93;2.57;;;;;;;;;;5050304;28;20300;-82
2022/10/29 07:41:28;;;;;;;3.07;2.83;;;;;;;;;;5049958;28;20375;-82
2022/10/29 07:43:56;;;;;;;3.23;3.00;;;;;;;;;;5050500;28;20201;-81
2022/10/29 07:46:23;;;;;;;8.23;2.60;;;;;;;;;;5051440;28;20214;-81
2022/10/29 07:48:50;;;;;;;2.97;2.60;;;;;;;;;;5054224;28;20205;-82
2022/10/29 07:51:16;;;;;;;3.63;2.20;;;;;;;;;;5054377;28;20229;-82
2022/10/29 07:53:43;;;;;;;2.57;2.30;;;;;;;;;;5054336;28;20554;-83
2022/10/29 07:56:10;;;;;;;3.70;2.60;;;;;;;;;;5053709;28;20255;-82
2022/10/29 07:58:37;;;;;;;4.00;2.70;;;;;;;;;;5053909;28;20283;-82
2022/10/29 08:01:05;;;;;;;3.00;2.33;;;;;;;;;;5054353;28;20202;-81
2022/10/29 08:03:32;;;;;;;2.47;2.27;;;;;;;;;;5054360;28;20225;-83
2022/10/29 08:05:59;;;;;;;5.50;2.50;;;;;;;;;;5039971;28;20564;-82
2022/10/29 08:08:25;;;;;;;3.37;2.47;;;;;;;;;;5053683;28;20207;-81
2022/10/29 08:10:52;;;;;;;2.30;2.10;;;;;;;;;;5053416;28;20199;-82
2022/10/29 08:13:20;;;;;;;2.67;2.30;;;;;;;;;;5054091;28;20690;-81
2022/10/29 08:15:49;;;;;;;6.30;2.47;;;;;;;;;;5053447;28;20212;-82
2022/10/29 08:18:17;;;;;;;2.83;2.20;;;;;;;;;;5053653;28;20233;-82
2022/10/29 08:20:45;;;;;;;2.83;2.23;;;;;;;;;;5053662;28;20586;-81
2022/10/29 08:23:12;;;;;;;2.30;2.00;;;;;;;;;;5053797;28;20259;-81
2022/10/29 08:25:41;;;;;;;2.93;2.43;;;;;;;;;;5053324;28;20835;-81
2022/10/29 08:28:09;;;;;;;3.57;2.10;;;;;;;;;;5040232;28;20271;-82
2022/10/29 08:30:36;;;;;;;2.17;1.97;;;;;;;;;;5053511;28;20210;-82
2022/10/29 08:33:03;;;;;;;3.23;2.17;;;;;;;;;;5053629;28;20267;-81
2022/10/29 08:35:32;;;;;;;4.40;2.47;;;;;;;;;;5053488;28;20210;-82
2022/10/29 08:37:59;;;;;;;2.97;2.27;;;;;;;;;;5053352;28;20290;-81
2022/10/29 08:40:30;;;;;;;2.60;2.40;;;;;;;;;;5053459;28;20263;-81
2022/10/29 08:43:26;;;;;;;2.57;2.23;;;;;;;;;;5053339;28;20205;-82
2022/10/29 08:45:54;;;;;;;3.50;2.57;;;;;;;;;;5041821;28;20206;-81
2022/10/29 08:48:36;;;;;;;3.43;3.17;;;;;;;;;;5053095;28;20242;-80
2022/10/29 08:51:11;;;;;;;3.30;2.30;;;;;;;;;;5053315;28;20292;-81
2022/10/29 08:53:40;;;;;;;3.60;2.87;;;;;;;;;;5053025;28;20288;-81
2022/10/29 08:56:11;;;;;;;3.67;2.50;;;;;;;;;;5052746;28;20669;-81
2022/10/29 08:58:45;;;;;;;4.03;2.83;;;;;;;;;;5052404;28;20241;-81
2022/10/29 09:01:12;;;;;;;3.57;3.07;;;;;;;;;;5052740;28;20201;-81
2022/10/29 09:03:39;;;;;;;6.20;4.23;;;;;;;;;;5053035;28;20267;-80
2022/10/29 09:06:10;;;;;;;4.27;3.80;;;;;;;;;;5052772;28;20267;-81
2022/10/29 09:08:56;;;;;;;7.67;3.57;;;;;;;;;;5052887;28;20672;-81
2022/10/29 09:11:36;;;;;;;2.90;2.70;;;;;;;;;;5052536;28;20255;-81
2022/10/29 09:14:14;;;;;;;5.20;3.70;;;;;;;;;;5052554;28;20209;-80
2022/10/29 09:16:44;;;;;;;4.03;3.20;;;;;;;;;;5052756;28;20600;-81
2022/10/29 09:19:38;;;;;;;4.97;3.17;;;;;;;;;;5052408;28;20229;-81
2022/10/29 09:22:13;;;;;;;2.57;2.37;;;;;;;;;;5051247;28;20667;-81
2022/10/29 09:24:44;;;;;;;3.63;2.20;;;;;;;;;;5052296;28;20197;-81
2022/10/29 09:27:15;;;;;;;3.73;3.00;;;;;;;;;;5052359;28;20201;-82
2022/10/29 09:30:02;;;;;;;3.57;2.53;;;;;;;;;;5052295;28;20684;-82
2022/10/29 09:32:33;;;;;;;3.93;3.23;;;;;;;;;;5052484;28;20210;-81
2022/10/29 09:35:03;;;;;;;3.60;3.03;;;;;;;;;;5052085;28;20255;-82
2022/10/29 09:37:39;;;;;;;4.83;3.40;;;;;;;;;;5052374;28;20264;-82
2022/10/29 09:40:10;;;;;;;4.63;3.83;;;;;;;;;;5052359;28;20259;-81
2022/10/29 09:42:39;;;;;;;8.20;5.20;;;;;;;;;;5052326;28;20198;-82
2022/10/29 09:45:08;;;;;;;8.50;5.03;;;;;;;;;;5052157;28;20209;-81
2022/10/29 09:47:39;;;;;;;6.33;4.83;;;;;;;;;;5052346;28;20194;-82
2022/10/29 09:50:16;;;;;;;6.53;4.63;;;;;;;;;;5051900;28;20259;-82
2022/10/29 09:52:46;;;;;;;5.93;4.77;;;;;;;;;;5051816;28;20633;-81
2022/10/29 09:55:20;;;;;;;12.27;5.30;;;;;;;;;;5051611;28;20205;-81
2022/10/29 09:57:49;;;;;;;11.67;5.37;;;;;;;;;;5051934;28;20202;-81
2022/10/29 10:00:19;;;;;;;4.90;4.27;;;;;;;;;;5052052;28;20225;-82
2022/10/29 10:02:53;;;;;;;7.33;4.57;;;;;;;;;;5051918;28;20206;-82
2022/10/29 10:05:24;;;;;;;6.13;4.20;;;;;;;;;;5051451;28;20205;-82
2022/10/29 10:08:06;;;;;;;5.87;3.97;;;;;;;;;;5051554;28;20198;-81
2022/10/29 10:10:33;;;;;;;5.47;3.87;;;;;;;;;;5051038;28;20288;-82
2022/10/29 10:13:03;;;;;;;6.13;3.97;;;;;;;;;;5051742;28;20198;-81
2022/10/29 10:15:31;;;;;;;7.70;4.30;;;;;;;;;;5050776;28;20209;-82
2022/10/29 10:18:00;;;;;;;8.37;4.50;;;;;;;;;;5050114;28;20198;-81
2022/10/29 10:20:32;;;;;;;5.03;3.80;;;;;;;;;;5050046;28;20229;-82
2022/10/29 10:22:59;;;;;;;6.27;4.47;;;;;;;;;;5049952;28;20198;-82
2022/10/29 10:25:35;;;;;;;4.40;3.33;;;;;;;;;;5050397;28;20201;-82
2022/10/29 10:28:17;;;;;;;6.50;3.90;;;;;;;;;;5050656;28;20208;-81
2022/10/29 10:30:45;;;;;;;6.23;3.87;;;;;;;;;;5050608;28;20264;-82
2022/10/29 10:33:22;;;;;;;7.30;4.17;;;;;;;;;;5037345;28;20198;-81
2022/10/29 10:35:48;;;;;;;6.63;4.13;;;;;;;;;;5050348;28;20255;-82
2022/10/29 10:38:15;;;;;;;4.90;4.17;;;;;;;;;;5050213;28;20721;-82
2022/10/29 10:40:44;;;;;;;5.80;3.80;;;;;;;;;;5050408;28;20202;-82
2022/10/29 10:43:19;;;;;;;5.63;3.43;;;;;;;;;;5050449;28;20586;-81
2022/10/29 10:45:52;;;;;;;2.73;2.50;;;;;;;;;;5050968;28;20221;-81
2022/10/29 10:48:19;;;;;;;4.97;3.27;;;;;;;;;;5050918;28;20205;-82
2022/10/29 10:50:46;;;;;;;4.90;3.43;;;;;;;;;;5050734;28;20665;-80
2022/10/29 10:53:17;;;;;;;4.10;3.13;;;;;;;;;;5050954;28;20205;-83
2022/10/29 10:55:49;;;;;;;4.63;2.87;;;;;;;;;;5050683;28;20198;-81
2022/10/29 10:58:19;;;;;;;3.17;2.50;;;;;;;;;;5050835;28;20202;-81
2022/10/29 11:00:49;;;;;;;3.03;2.73;;;;;;;;;;5050735;28;20202;-81
2022/10/29 11:03:20;;;;;;;3.33;3.03;;;;;;;;;;5050775;28;20230;-81
2022/10/29 11:05:59;;;;;;;4.50;3.70;;;;;;;;;;5050421;28;20198;-82
2022/10/29 11:08:28;;;;;;;4.23;2.90;;;;;;;;;;5050466;28;20711;-82
2022/10/29 11:11:00;;;;;;;3.37;2.60;;;;;;;;;;5050058;28;20201;-82
2022/10/29 11:13:29;;;;;;;3.10;2.70;;;;;;;;;;5050335;28;20213;-81
2022/10/29 11:16:02;;;;;;;5.67;3.13;;;;;;;;;;5050408;28;20194;-81
2022/10/29 11:18:33;;;;;;;5.47;3.53;;;;;;;;;;5050230;28;20221;-81
2022/10/29 11:21:05;;;;;;;3.30;3.00;;;;;;;;;;5050314;28;20264;-76
2022/10/29 11:23:39;;;;;;;7.53;2.90;;;;;;;;;;5050383;28;20205;-80
2022/10/29 11:26:13;;;;;;;2.53;2.33;;;;;;;;;;5050563;28;20224;-81
2022/10/29 11:28:45;;;;;;;6.67;3.73;;;;;;;;;;5050378;28;20220;-81
2022/10/29 11:31:17;;;;;;;4.93;3.77;;;;;;;;;;5049926;28;20216;-81
2022/10/29 11:33:48;;;;;;;6.27;3.50;;;;;;;;;;5050288;28;20617;-80
2022/10/29 11:36:19;;;;;;;6.97;4.20;;;;;;;;;;5050293;28;20234;-81
2022/10/29 11:38:49;;;;;;;7.03;3.90;;;;;;;;;;5050217;28;20265;-80
2022/10/29 11:41:23;;;;;;;7.00;4.13;;;;;;;;;;5049834;28;20275;-80
2022/10/29 11:43:50;;;;;;;5.13;4.17;;;;;;;;;;5050329;28;20205;-80
2022/10/29 11:46:23;;;;;;;6.40;4.43;;;;;;;;;;5050358;28;20271;-81
2022/10/29 11:48:59;;;;;;;6.00;3.93;;;;;;;;;;5050154;28;20206;-81
2022/10/29 11:51:32;;;;;;;3.83;3.37;;;;;;;;;;5049919;28;20212;-80
2022/10/29 11:54:05;;;;;;;8.67;4.00;;;;;;;;;;5050034;28;20228;-81
2022/10/29 11:56:55;;;;;;;16.03;5.33;;;;;;;;;;5050354;28;20198;-81
2022/10/29 11:59:29;;;;;;;5.27;4.03;;;;;;;;;;5046968;28;20730;-80
2022/10/29 12:02:01;;;;;;;7.13;5.13;;;;;;;;;;5049952;28;20233;-80
2022/10/29 12:04:30;;;;;;;11.80;6.00;;;;;;;;;;5050123;28;20229;-81
2022/10/29 12:07:18;;;;;;;6.73;4.83;;;;;;;;;;5050524;28;20217;-80
2022/10/29 12:10:03;;;;;;;5.50;4.93;;;;;;;;;;5050039;28;20584;-80
2022/10/29 12:12:36;;;;;;;9.83;5.10;;;;;;;;;;5049928;28;20202;-81
2022/10/29 12:15:12;;;;;;;7.30;4.60;;;;;;;;;;5050133;28;20209;-81
2022/10/29 12:17:42;;;;;;;5.53;4.40;;;;;;;;;;5049974;28;20198;-81
2022/10/29 12:20:15;;;;;;;4.97;3.87;;;;;;;;;;5050268;28;20612;-81
2022/10/29 12:22:46;;;;;;;6.30;4.53;;;;;;;;;;5049677;28;20198;-80
2022/10/29 12:25:29;;;;;;;5.23;4.40;;;;;;;;;;5049587;28;20206;-80
2022/10/29 12:28:04;;;;;;;7.30;5.43;;;;;;;;;;5050008;28;20198;-80
2022/10/29 12:30:35;;;;;;;9.00;5.33;;;;;;;;;;5049763;28;20202;-80
2022/10/29 12:33:07;;;;;;;7.03;5.13;;;;;;;;;;5051590;28;20202;-81
2022/10/29 12:35:38;;;;;;;6.37;4.87;;;;;;;;;;5053474;28;20206;-81
2022/10/29 12:38:17;;;;;;;5.83;5.13;;;;;;;;;;5053404;28;20202;-81
2022/10/29 12:40:45;;;;;;;7.47;4.47;;;;;;;;;;5053318;28;20311;-81
2022/10/29 12:43:21;;;;;;;10.90;5.90;;;;;;;;;;5052867;28;20201;-81
2022/10/29 12:45:51;;;;;;;4.83;4.07;;;;;;;;;;5053510;28;20198;-80
2022/10/29 12:48:27;;;;;;;5.20;4.70;;;;;;;;;;5053284;28;20244;-81
2022/10/29 12:51:00;;;;;;;5.43;4.43;;;;;;;;;;5052948;28;20229;-80
2022/10/29 12:53:30;;;;;;;5.23;4.20;;;;;;;;;;5053348;28;20202;-81
2022/10/29 12:55:57;;;;;;;4.47;3.73;;;;;;;;;;5053413;28;20198;-81
2022/10/29 12:58:51;;;;;;;8.40;3.83;;;;;;;;;;5052893;28;20206;-80
2022/10/29 13:01:48;;;;;;;6.33;4.27;;;;;;;;;;5053342;28;20291;-80
2022/10/29 13:04:30;;;;;;;7.50;4.23;;;;;;;;;;5026160;28;20234;-81
2022/10/29 13:07:03;;;;;;;6.63;3.97;;;;;;;;;;5052640;28;20206;-81
2022/10/29 13:09:32;;;;;;;4.73;3.57;;;;;;;;;;5051485;28;20591;-81
2022/10/29 13:12:00;;;;;;;3.97;3.30;;;;;;;;;;5048940;28;20202;-81
2022/10/29 13:14:35;;;;;;;5.37;3.90;;;;;;;;;;5051295;28;20194;-81
2022/10/29 13:17:04;;;;;;;3.63;3.23;;;;;;;;;;5043901;28;20202;-80
2022/10/29 13:19:49;;;;;;;3.97;3.57;;;;;;;;;;5052104;28;20230;-81
2022/10/29 13:22:53;;;;;;;6.43;3.60;;;;;;;;;;5052303;28;20680;-80
2022/10/29 13:25:47;;;;;;;4.90;3.27;;;;;;;;;;5052004;28;20638;-81
2022/10/29 13:28:49;;;;;;;3.43;3.13;;;;;;;;;;5051967;28;20197;-81
2022/10/29 13:31:48;;;;;;;3.60;3.27;;;;;;;;;;5052265;28;20288;-81
2022/10/29 13:34:57;;;;;;;6.13;3.70;;;;;;;;;;5051983;28;20300;-80
2022/10/29 13:37:48;;;;;;;5.13;3.90;;;;;;;;;;4986369;28;20208;-76
2022/10/29 13:40:52;;;;;;;4.37;3.07;;;;;;;;;;5050514;28;20260;-78
2022/10/29 13:43:19;;;;;;;5.40;3.50;;;;;;;;;;5047073;28;20311;-76
2022/10/29 13:45:51;;;;;;;9.27;4.43;;;;;;;;;;5050024;28;20210;-77
2022/10/29 13:48:25;;;;;;;3.90;3.40;;;;;;;;;;5052154;28;20721;-76
2022/10/29 13:50:53;;;;;;;5.70;4.20;;;;;;;;;;5051157;28;20206;-76
2022/10/29 13:53:25;;;;;;;5.43;3.63;;;;;;;;;;5050109;28;20267;-77
2022/10/29 13:55:53;;;;;;;6.97;4.00;;;;;;;;;;5030788;28;20708;-78
2022/10/29 13:58:27;;;;;;;6.23;4.47;;;;;;;;;;5038620;28;20209;-78
2022/10/29 14:00:55;;;;;;;10.30;3.87;;;;;;;;;;5044938;28;20225;-78
2022/10/29 14:03:29;;;;;;;8.47;3.90;;;;;;;;;;5051328;28;20233;-78
2022/10/29 14:06:00;;;;;;;4.67;3.53;;;;;;;;;;5051077;28;20205;-78
2022/10/29 14:08:34;;;;;;;5.23;4.07;;;;;;;;;;5038967;28;20681;-77
2022/10/29 14:11:03;;;;;;;4.00;3.57;;;;;;;;;;5034637;28;20689;-79
2022/10/29 14:13:31;;;;;;;5.60;4.30;;;;;;;;;;5036870;28;20206;-78
2022/10/29 14:16:03;;;;;;;7.33;4.27;;;;;;;;;;5051131;28;20197;-77
2022/10/29 14:18:34;;;;;;;5.73;4.50;;;;;;;;;;5049929;28;20205;-77
2022/10/29 14:21:02;;;;;;;4.17;3.80;;;;;;;;;;5048380;28;20225;-76
2022/10/29 14:23:31;;;;;;;6.83;4.83;;;;;;;;;;5051674;28;20202;-76
2022/10/29 14:26:01;;;;;;;4.80;4.37;;;;;;;;;;5050596;28;20201;-77
2022/10/29 14:28:30;;;;;;;8.20;4.87;;;;;;;;;;5050143;28;20233;-76
2022/10/29 14:31:02;;;;;;;8.40;4.67;;;;;;;;;;5050788;28;20245;-76
2022/10/29 14:33:32;;;;;;;9.90;6.90;;;;;;;;;;5049128;28;20205;-77
2022/10/29 14:36:04;;;;;;;6.30;5.03;;;;;;;;;;5048930;28;20205;-76
2022/10/29 14:38:36;;;;;;;9.20;5.80;;;;;;;;;;5049946;28;20269;-77
2022/10/29 14:41:04;;;;;;;9.60;5.90;;;;;;;;;;5050840;28;20233;-76
2022/10/29 14:43:31;;;;;;;8.57;6.00;;;;;;;;;;5049351;28;20198;-76
2022/10/29 14:46:09;;;;;;;8.40;5.47;;;;;;;;;;5050880;28;20206;-77
2022/10/29 14:48:39;;;;;;;6.67;5.27;;;;;;;;;;5049524;28;20201;-77
2022/10/29 14:51:06;;;;;;;7.73;6.03;;;;;;;;;;5048824;28;20218;-77
2022/10/29 14:53:34;;;;;;;7.57;6.07;;;;;;;;;;5049592;28;20201;-77
2022/10/29 14:56:07;;;;;;;9.10;6.00;;;;;;;;;;5048440;28;20252;-76
2022/10/29 14:58:36;;;;;;;7.00;4.93;;;;;;;;;;5048938;28;20210;-77
2022/10/29 15:01:04;;;;;;;8.33;5.50;;;;;;;;;;5050159;28;20804;-77
2022/10/29 15:03:33;;;;;;;6.60;5.50;;;;;;;;;;5050447;28;20588;-77